createdAt,value
2023-04-15T00:01:51.321Z,4.32
2023-04-15T00:04:18.404Z,4.38
2023-04-15T00:06:50.090Z,4.40
2023-04-15T00:09:16.957Z,4.43
2023-04-15T00:11:43.486Z,4.46
2023-04-15T00:14:10.165Z,4.45
2023-04-15T00:16:36.750Z,4.44
2023-04-15T00:19:03.550Z,4.42
2023-04-15T00:21:30.182Z,4.38
2023-04-15T00:23:56.972Z,4.42
2023-04-15T00:26:23.509Z,4.51
2023-04-15T00:28:50.629Z,4.50
2023-04-15T00:31:17.309Z,4.52
2023-04-15T00:33:43.984Z,4.45
2023-04-15T00:36:11.345Z,4.47
2023-04-15T00:38:38.172Z,4.40
2023-04-15T00:41:04.996Z,4.45
2023-04-15T00:43:31.505Z,4.50
2023-04-15T00:45:58.957Z,4.51
2023-04-15T00:48:26.605Z,4.47
2023-04-15T00:50:53.029Z,4.45
2023-04-15T00:53:19.708Z,4.54
2023-04-15T00:55:46.550Z,4.54
2023-04-15T00:58:13.426Z,4.56
2023-04-15T01:00:41.138Z,4.59
2023-04-15T01:03:07.932Z,4.69
2023-04-15T01:05:34.958Z,4.74
2023-04-15T01:08:02.094Z,4.67
2023-04-15T01:10:28.651Z,4.65
2023-04-15T01:12:55.215Z,4.67
2023-04-15T01:15:22.087Z,4.65
2023-04-15T01:17:49.005Z,4.49
2023-04-15T01:20:20.424Z,4.58
2023-04-15T01:22:53.141Z,4.53
2023-04-15T01:25:20.492Z,4.56
2023-04-15T01:27:47.674Z,4.61
2023-04-15T01:30:14.229Z,4.55
2023-04-15T01:32:46.741Z,4.51
2023-04-15T01:35:13.255Z,4.69
2023-04-15T01:37:39.790Z,4.73
2023-04-15T01:40:06.754Z,4.71
2023-04-15T01:42:33.829Z,4.71
2023-04-15T01:45:00.469Z,4.67
2023-04-15T01:47:27.253Z,4.63
2023-04-15T01:49:59.865Z,4.53
2023-04-15T01:52:26.461Z,4.49
2023-04-15T01:54:53.770Z,4.49
2023-04-15T01:57:20.370Z,4.36
2023-04-15T01:59:47.048Z,4.47
2023-04-15T02:02:13.553Z,4.52
2023-04-15T02:04:40.275Z,4.59
2023-04-15T02:07:07.232Z,4.54
2023-04-15T02:09:33.912Z,4.60
2023-04-15T02:12:00.848Z,4.63
2023-04-15T02:14:27.515Z,4.66
2023-04-15T02:16:54.275Z,4.86
2023-04-15T02:19:20.892Z,4.88
2023-04-15T02:21:47.303Z,4.80
2023-04-15T02:24:13.917Z,4.80
2023-04-15T02:26:43.480Z,4.76
2023-04-15T02:29:13.495Z,4.63
2023-04-15T02:31:44.366Z,4.67
2023-04-15T02:34:11.326Z,4.76
2023-04-15T02:36:37.784Z,4.77
2023-04-15T02:39:04.537Z,4.92
2023-04-15T02:41:32.332Z,4.98
2023-04-15T02:43:58.897Z,5.10
2023-04-15T02:46:25.551Z,4.98
2023-04-15T02:48:53.918Z,5.04
2023-04-15T02:51:21.543Z,5.00
2023-04-15T02:53:49.092Z,4.97
2023-04-15T02:56:18.458Z,5.04
2023-04-15T02:58:50.783Z,4.80
2023-04-15T03:01:17.550Z,4.76
2023-04-15T03:03:44.092Z,4.68
2023-04-15T03:06:10.988Z,4.83
2023-04-15T03:08:39.733Z,4.98
2023-04-15T03:11:06.726Z,4.86
2023-04-15T03:13:33.300Z,4.91
2023-04-15T03:15:59.936Z,4.95
2023-04-15T03:18:26.490Z,4.81
2023-04-15T03:20:53.226Z,4.81
2023-04-15T03:23:19.972Z,4.84
2023-04-15T03:25:46.584Z,4.80
2023-04-15T03:28:13.799Z,5.02
2023-04-15T03:30:40.513Z,5.07
2023-04-15T03:33:07.071Z,5.07
2023-04-15T03:35:33.817Z,5.11
2023-04-15T03:38:00.405Z,5.13
2023-04-15T03:40:27.291Z,5.15
2023-04-15T03:42:53.935Z,5.00
2023-04-15T03:45:20.793Z,5.06
2023-04-15T03:47:47.468Z,5.09
2023-04-15T03:50:15.882Z,5.03
2023-04-15T03:52:42.396Z,4.88
2023-04-15T03:55:10.808Z,4.90
2023-04-15T03:57:39.420Z,4.87
2023-04-15T04:00:06.462Z,4.90
2023-04-15T04:02:33.366Z,5.03
2023-04-15T04:05:00.159Z,5.16
2023-04-15T04:07:26.817Z,5.12
2023-04-15T04:09:53.397Z,5.19
2023-04-15T04:12:19.813Z,5.27
2023-04-15T04:14:48.622Z,5.39
2023-04-15T04:17:15.192Z,5.48
2023-04-15T04:19:41.865Z,5.44
2023-04-15T04:22:08.382Z,5.55
2023-04-15T04:24:35.053Z,5.56
2023-04-15T04:27:02.292Z,5.65
2023-04-15T04:29:29.207Z,5.66
2023-04-15T04:31:56.015Z,5.68
2023-04-15T04:34:22.810Z,5.84
2023-04-15T04:36:49.569Z,5.81
2023-04-15T04:39:16.160Z,5.86
2023-04-15T04:41:42.723Z,5.92
2023-04-15T04:44:09.194Z,6.03
2023-04-15T04:46:35.719Z,6.02
2023-04-15T04:49:02.520Z,6.09
2023-04-15T04:51:29.270Z,6.14
2023-04-15T04:53:56.861Z,6.13
2023-04-15T04:56:26.325Z,6.20
2023-04-15T04:58:53.261Z,6.24
2023-04-15T05:01:20.092Z,6.17
2023-04-15T05:03:47.405Z,6.21
2023-04-15T05:06:13.919Z,6.24
2023-04-15T05:08:41.525Z,6.31
2023-04-15T05:11:08.774Z,6.28
2023-04-15T05:13:38.907Z,6.35
2023-04-15T05:16:06.362Z,6.37
2023-04-15T05:18:32.993Z,6.40
2023-04-15T05:20:59.824Z,6.36
2023-04-15T05:23:26.837Z,6.37
2023-04-15T05:25:53.825Z,6.35
2023-04-15T05:28:20.494Z,6.35
2023-04-15T05:30:47.020Z,6.37
2023-04-15T05:33:13.573Z,6.38
2023-04-15T05:35:43.208Z,6.36
2023-04-15T05:38:11.894Z,6.43
2023-04-15T05:40:38.365Z,6.41
2023-04-15T05:43:05.280Z,6.45
2023-04-15T05:45:31.977Z,6.44
2023-04-15T05:47:58.595Z,6.48
2023-04-15T05:50:25.116Z,6.53
2023-04-15T05:52:51.600Z,6.47
2023-04-15T05:55:20.285Z,6.58
2023-04-15T05:57:46.778Z,6.49
2023-04-15T06:00:14.166Z,6.55
2023-04-15T06:02:42.652Z,6.57
2023-04-15T06:05:10.823Z,6.58
2023-04-15T06:07:37.935Z,6.60
2023-04-15T06:10:05.135Z,6.57
2023-04-15T06:12:31.960Z,6.67
2023-04-15T06:15:00.096Z,6.58
2023-04-15T06:17:27.119Z,6.58
2023-04-15T06:19:56.748Z,6.56
2023-04-15T06:22:23.882Z,6.65
2023-04-15T06:24:51.627Z,6.66
2023-04-15T06:27:18.918Z,6.65
2023-04-15T06:29:46.550Z,6.74
2023-04-15T06:32:13.356Z,6.71
2023-04-15T06:34:42.269Z,6.69
2023-04-15T06:37:11.452Z,6.63
2023-04-15T06:39:38.488Z,6.63
2023-04-15T06:42:05.273Z,6.70
2023-04-15T06:44:33.793Z,6.77
2023-04-15T06:47:00.641Z,6.85
2023-04-15T06:49:27.383Z,6.77
2023-04-15T06:51:54.151Z,6.77
2023-04-15T06:54:20.696Z,6.17
2023-04-15T06:56:52.167Z,6.79
2023-04-15T06:59:19.089Z,6.89
2023-04-15T07:01:47.226Z,6.81
2023-04-15T07:04:13.824Z,6.88
2023-04-15T07:06:40.429Z,6.86
2023-04-15T07:09:07.013Z,6.85
2023-04-15T07:11:33.900Z,6.94
2023-04-15T07:14:00.686Z,6.96
2023-04-15T07:16:28.703Z,6.92
2023-04-15T07:18:56.417Z,6.95
2023-04-15T07:21:23.042Z,7.00
2023-04-15T07:24:00.678Z,7.00
2023-04-15T07:26:27.494Z,6.93
2023-04-15T07:28:54.122Z,6.83
2023-04-15T07:31:20.822Z,6.97
2023-04-15T07:33:47.222Z,6.96
2023-04-15T07:36:14.283Z,7.04
2023-04-15T07:38:42.766Z,7.01
2023-04-15T07:41:09.573Z,7.03
2023-04-15T07:43:36.122Z,7.05
2023-04-15T07:46:02.813Z,7.05
2023-04-15T07:48:29.388Z,6.96
2023-04-15T07:50:59.787Z,7.10
2023-04-15T07:53:26.662Z,7.08
2023-04-15T07:55:53.287Z,7.07
2023-04-15T07:58:19.898Z,7.08
2023-04-15T08:00:46.730Z,6.97
2023-04-15T08:03:13.449Z,7.00
2023-04-15T08:05:40.143Z,6.98
2023-04-15T08:08:07.193Z,7.07
2023-04-15T08:10:33.939Z,7.02
2023-04-15T08:13:01.160Z,7.02
2023-04-15T08:15:29.754Z,6.95
2023-04-15T08:17:56.286Z,7.03
2023-04-15T08:20:22.764Z,7.10
2023-04-15T08:22:52.049Z,7.16
2023-04-15T08:25:19.821Z,7.03
2023-04-15T08:27:46.754Z,7.11
2023-04-15T08:30:14.509Z,7.13
2023-04-15T08:32:48.129Z,7.06
2023-04-15T08:35:15.750Z,7.09
2023-04-15T08:37:42.875Z,7.09
2023-04-15T08:40:09.972Z,7.09
2023-04-15T08:42:47.601Z,7.10
2023-04-15T08:45:15.213Z,6.41
2023-04-15T08:47:43.456Z,7.18
2023-04-15T08:50:10.821Z,7.17
2023-04-15T08:52:37.332Z,7.07
2023-04-15T08:55:04.988Z,7.03
2023-04-15T08:57:31.586Z,7.05
2023-04-15T08:59:58.380Z,7.08
2023-04-15T09:02:28.763Z,7.06
2023-04-15T09:04:56.929Z,7.09
2023-04-15T09:07:23.397Z,7.17
2023-04-15T09:09:51.009Z,7.13
2023-04-15T09:12:18.410Z,7.14
2023-04-15T09:14:46.181Z,7.18
2023-04-15T09:17:14.232Z,7.09
2023-04-15T09:19:40.747Z,7.20
2023-04-15T09:22:07.427Z,7.13
2023-04-15T09:24:37.507Z,7.08
2023-04-15T09:27:04.693Z,7.21
2023-04-15T09:29:31.633Z,7.29
2023-04-15T09:32:09.176Z,7.30
2023-04-15T09:34:37.597Z,7.39
2023-04-15T09:37:04.380Z,7.37
2023-04-15T09:39:50.277Z,7.35
2023-04-15T09:42:24.853Z,7.44
2023-04-15T09:44:52.885Z,7.36
2023-04-15T09:47:29.358Z,7.35
2023-04-15T09:49:57.461Z,7.43
2023-04-15T09:52:24.041Z,7.48
2023-04-15T09:54:53.218Z,7.57
2023-04-15T09:57:25.259Z,7.64
2023-04-15T09:59:52.165Z,7.52
2023-04-15T10:02:20.205Z,7.56
2023-04-15T10:04:48.901Z,7.58
2023-04-15T10:07:15.825Z,7.61
2023-04-15T10:09:45.834Z,7.62
2023-04-15T10:12:12.652Z,7.59
2023-04-15T10:14:40.331Z,7.54
2023-04-15T10:17:08.556Z,7.49
2023-04-15T10:19:37.519Z,7.41
2023-04-15T10:22:06.040Z,7.63
2023-04-15T10:24:34.095Z,7.49
2023-04-15T10:27:01.608Z,7.50
2023-04-15T10:29:28.820Z,7.68
2023-04-15T10:31:56.722Z,7.63
2023-04-15T10:34:24.663Z,7.45
2023-04-15T10:36:52.205Z,7.56
2023-04-15T10:39:34.661Z,7.62
2023-04-15T10:42:07.705Z,7.65
2023-04-15T10:44:34.463Z,7.47
2023-04-15T10:47:01.269Z,7.63
2023-04-15T10:49:27.862Z,7.77
2023-04-15T10:51:58.423Z,7.75
2023-04-15T10:54:25.013Z,7.71
2023-04-15T10:56:52.659Z,7.82
2023-04-15T10:59:20.836Z,7.94
2023-04-15T11:01:52.543Z,7.71
2023-04-15T11:04:39.956Z,7.74
2023-04-15T11:07:08.230Z,7.73
2023-04-15T11:09:36.032Z,7.85
2023-04-15T11:12:10.891Z,7.79
2023-04-15T11:14:41.693Z,7.84
2023-04-15T11:17:08.227Z,7.81
2023-04-15T11:19:39.016Z,7.87
2023-04-15T11:22:09.196Z,7.90
2023-04-15T11:24:38.259Z,7.96
2023-04-15T11:27:04.844Z,7.94
2023-04-15T11:29:34.556Z,8.01
2023-04-15T11:32:09.517Z,8.11
2023-04-15T11:34:36.660Z,8.18
2023-04-15T11:37:10.550Z,8.06
2023-04-15T11:39:39.516Z,8.29
2023-04-15T11:42:16.519Z,8.02
2023-04-15T11:44:43.042Z,8.06
2023-04-15T11:47:22.919Z,8.13
2023-04-15T11:49:49.593Z,8.01
2023-04-15T11:52:16.367Z,7.98
2023-04-15T11:54:42.939Z,8.06
2023-04-15T11:57:09.524Z,8.03
2023-04-15T11:59:46.341Z,8.12
2023-04-15T12:02:13.623Z,8.19
2023-04-15T12:04:41.451Z,8.03
2023-04-15T12:07:08.681Z,8.22
2023-04-15T12:09:37.891Z,8.07
2023-04-15T12:12:04.566Z,8.11
2023-04-15T12:14:32.183Z,8.06
2023-04-15T12:17:00.403Z,8.11
2023-04-15T12:19:28.857Z,8.08
2023-04-15T12:22:00.807Z,8.09
2023-04-15T12:24:28.579Z,8.07
2023-04-15T12:26:58.616Z,8.22
2023-04-15T12:29:27.069Z,8.26
2023-04-15T12:31:55.146Z,8.23
2023-04-15T12:34:28.349Z,8.12
2023-04-15T12:36:57.989Z,8.24
2023-04-15T12:39:25.942Z,8.19
2023-04-15T12:41:53.419Z,8.25
2023-04-15T12:44:21.293Z,8.13
2023-04-15T12:46:51.043Z,8.15
2023-04-15T12:49:21.054Z,8.02
2023-04-15T12:51:49.062Z,8.01
2023-04-15T12:54:16.974Z,8.12
2023-04-15T12:56:44.457Z,8.09
2023-04-15T12:59:11.259Z,8.06
2023-04-15T13:01:38.264Z,8.19
2023-04-15T13:04:05.564Z,7.97
2023-04-15T13:06:35.491Z,7.88
2023-04-15T13:09:05.718Z,8.16
2023-04-15T13:11:34.249Z,8.08
2023-04-15T13:14:05.283Z,8.16
2023-04-15T13:16:32.490Z,8.14
2023-04-15T13:19:00.139Z,8.05
2023-04-15T13:21:28.378Z,8.21
2023-04-15T13:23:57.018Z,8.15
2023-04-15T13:26:23.592Z,8.29
2023-04-15T13:28:50.587Z,8.36
2023-04-15T13:31:17.337Z,8.30
2023-04-15T13:33:43.971Z,8.29
2023-04-15T13:36:10.676Z,8.33
2023-04-15T13:38:38.034Z,8.25
2023-04-15T13:41:04.819Z,8.25
2023-04-15T13:43:33.785Z,8.21
2023-04-15T13:46:02.031Z,8.23
2023-04-15T13:48:28.897Z,8.32
2023-04-15T13:51:08.910Z,8.30
2023-04-15T13:53:39.740Z,8.36
2023-04-15T13:56:07.646Z,8.37
2023-04-15T13:58:34.292Z,8.28
2023-04-15T14:01:03.202Z,8.32
2023-04-15T14:03:31.631Z,8.43
2023-04-15T14:06:06.841Z,8.44
2023-04-15T14:08:33.474Z,8.41
2023-04-15T14:11:00.304Z,8.43
2023-04-15T14:13:26.992Z,8.54
2023-04-15T14:15:53.766Z,8.39
2023-04-15T14:18:20.559Z,8.54
2023-04-15T14:20:47.436Z,8.43
2023-04-15T14:23:14.007Z,8.47
2023-04-15T14:25:40.737Z,8.05
2023-04-15T14:28:10.269Z,8.49
2023-04-15T14:30:37.306Z,8.51
2023-04-15T14:33:04.477Z,8.54
2023-04-15T14:35:31.601Z,8.50
2023-04-15T14:37:58.268Z,8.63
2023-04-15T14:40:24.887Z,8.70
2023-04-15T14:42:51.597Z,8.79
2023-04-15T14:45:19.420Z,8.60
2023-04-15T14:47:46.583Z,8.63
2023-04-15T14:50:13.290Z,8.66
2023-04-15T14:52:41.040Z,8.69
2023-04-15T14:55:08.810Z,8.65
2023-04-15T14:57:35.447Z,8.64
2023-04-15T15:00:02.484Z,8.58
2023-04-15T15:02:38.530Z,8.52
2023-04-15T15:05:06.608Z,8.71
2023-04-15T15:07:33.261Z,8.69
2023-04-15T15:09:59.970Z,8.73
2023-04-15T15:12:26.557Z,8.77
2023-04-15T15:14:53.174Z,8.77
2023-04-15T15:17:19.886Z,8.82
2023-04-15T15:19:46.876Z,8.78
2023-04-15T15:22:13.683Z,8.72
2023-04-15T15:24:40.593Z,8.88
2023-04-15T15:27:07.066Z,8.69
2023-04-15T15:29:34.167Z,8.89
2023-04-15T15:32:00.707Z,8.82
2023-04-15T15:34:27.467Z,8.87
2023-04-15T15:36:55.738Z,8.87
2023-04-15T15:39:25.417Z,8.90
2023-04-15T15:41:52.180Z,8.84
2023-04-15T15:44:18.744Z,8.82
2023-04-15T15:46:45.875Z,8.77
2023-04-15T15:49:12.905Z,8.68
2023-04-15T15:51:39.567Z,8.70
2023-04-15T15:54:06.178Z,8.68
2023-04-15T15:56:33.686Z,8.76
2023-04-15T15:59:00.448Z,8.81
2023-04-15T16:01:27.260Z,8.65
2023-04-15T16:03:54.112Z,8.75
2023-04-15T16:06:21.820Z,8.78
2023-04-15T16:08:48.700Z,8.80
2023-04-15T16:11:15.591Z,8.80
2023-04-15T16:13:42.344Z,8.91
2023-04-15T16:16:09.257Z,8.80
2023-04-15T16:18:36.026Z,8.96
2023-04-15T16:21:02.858Z,8.76
2023-04-15T16:23:29.263Z,8.76
2023-04-15T16:25:56.457Z,8.73
2023-04-15T16:28:26.881Z,8.78
2023-04-15T16:30:54.135Z,8.77
2023-04-15T16:33:28.572Z,8.71
2023-04-15T16:35:55.227Z,8.69
2023-04-15T16:38:21.888Z,8.69
2023-04-15T16:40:48.813Z,8.72
2023-04-15T16:43:15.467Z,8.73
2023-04-15T16:45:44.608Z,8.73
2023-04-15T16:48:11.228Z,8.68
2023-04-15T16:50:37.743Z,8.74
2023-04-15T16:53:04.359Z,8.79
2023-04-15T16:55:31.117Z,8.69
2023-04-15T16:58:01.485Z,8.63
2023-04-15T17:00:32.905Z,8.69
2023-04-15T17:03:01.195Z,8.67
2023-04-15T17:05:28.360Z,8.72
2023-04-15T17:07:55.441Z,8.74
2023-04-15T17:10:22.250Z,8.65
2023-04-15T17:12:50.020Z,8.77
2023-04-15T17:15:17.137Z,8.73
2023-04-15T17:17:43.801Z,8.71
2023-04-15T17:20:11.110Z,8.63
2023-04-15T17:22:37.774Z,8.66
2023-04-15T17:25:04.981Z,8.66
2023-04-15T17:27:31.853Z,8.67
2023-04-15T17:29:58.553Z,8.69
2023-04-15T17:32:26.544Z,8.63
2023-04-15T17:34:53.148Z,8.70
2023-04-15T17:37:19.768Z,8.66
2023-04-15T17:39:47.636Z,8.68
2023-04-15T17:42:14.120Z,8.62
2023-04-15T17:44:41.133Z,8.56
2023-04-15T17:47:07.843Z,8.65
2023-04-15T17:49:34.865Z,8.64
2023-04-15T17:52:01.541Z,8.58
2023-04-15T17:54:28.381Z,8.66
2023-04-15T17:56:55.290Z,8.63
2023-04-15T17:59:22.028Z,8.64
2023-04-15T18:01:48.806Z,8.69
2023-04-15T18:04:17.041Z,8.66
2023-04-15T18:06:44.076Z,8.63
2023-04-15T18:09:11.033Z,8.66
2023-04-15T18:11:39.467Z,8.67
2023-04-15T18:14:06.966Z,8.66
2023-04-15T18:16:34.264Z,8.66
2023-04-15T18:19:02.287Z,8.57
2023-04-15T18:21:28.801Z,8.66
2023-04-15T18:23:55.631Z,8.58
2023-04-15T18:26:22.311Z,8.66
2023-04-15T18:28:48.841Z,8.69
2023-04-15T18:31:15.873Z,8.69
2023-04-15T18:33:43.949Z,8.61
2023-04-15T18:36:10.823Z,8.64
2023-04-15T18:38:37.583Z,8.67
2023-04-15T18:41:07.700Z,8.71
2023-04-15T18:43:38.986Z,8.70
2023-04-15T18:46:09.889Z,8.67
2023-04-15T18:48:36.679Z,8.68
2023-04-15T18:51:03.332Z,8.72
2023-04-15T18:53:30.179Z,8.63
2023-04-15T18:55:57.925Z,8.70
2023-04-15T18:58:24.506Z,8.71
2023-04-15T19:00:51.101Z,8.70
2023-04-15T19:03:17.879Z,8.71
2023-04-15T19:05:44.568Z,8.75
2023-04-15T19:08:11.662Z,8.76
2023-04-15T19:10:38.208Z,8.69
2023-04-15T19:13:04.814Z,8.67
2023-04-15T19:15:32.919Z,8.69
2023-04-15T19:17:59.467Z,8.69
2023-04-15T19:20:26.371Z,8.77
2023-04-15T19:22:54.436Z,8.73
2023-04-15T19:25:21.337Z,8.72
2023-04-15T19:27:47.985Z,8.77
2023-04-15T19:30:14.558Z,8.70
2023-04-15T19:32:41.252Z,8.78
2023-04-15T19:35:09.923Z,8.78
2023-04-15T19:37:37.929Z,8.80
2023-04-15T19:40:05.006Z,8.81
2023-04-15T19:42:31.597Z,8.72
2023-04-15T19:44:58.274Z,8.79
2023-04-15T19:47:25.122Z,8.82
2023-04-15T19:49:52.745Z,8.81
2023-04-15T19:52:19.506Z,8.78
2023-04-15T19:54:46.219Z,8.80
2023-04-15T19:57:12.856Z,8.78
2023-04-15T19:59:39.485Z,8.81
2023-04-15T20:02:06.482Z,8.85
2023-04-15T20:04:33.123Z,8.85
2023-04-15T20:07:00.198Z,8.87
2023-04-15T20:09:26.834Z,8.87
2023-04-15T20:12:10.041Z,8.87
2023-04-15T20:14:41.374Z,8.87
2023-04-15T20:17:07.828Z,8.86
2023-04-15T20:19:34.339Z,8.89
2023-04-15T20:22:02.249Z,8.89
2023-04-15T20:24:28.987Z,8.90
2023-04-15T20:26:57.704Z,8.96
2023-04-15T20:29:24.326Z,8.91
2023-04-15T20:31:50.969Z,8.89
2023-04-15T20:34:18.012Z,8.87
2023-04-15T20:36:45.901Z,8.95
2023-04-15T20:39:12.913Z,8.96
2023-04-15T20:41:40.401Z,8.96
2023-04-15T20:44:08.276Z,9.01
2023-04-15T20:46:35.224Z,8.95
2023-04-15T20:49:02.104Z,8.98
2023-04-15T20:51:29.885Z,8.99
2023-04-15T20:53:56.787Z,9.01
2023-04-15T20:56:23.336Z,9.00
2023-04-15T20:58:50.339Z,8.97
2023-04-15T21:01:16.963Z,9.00
2023-04-15T21:03:43.674Z,9.01
2023-04-15T21:06:10.699Z,9.03
2023-04-15T21:08:37.490Z,9.01
2023-04-15T21:11:04.179Z,9.05
2023-04-15T21:13:30.768Z,9.01
2023-04-15T21:15:57.252Z,9.09
2023-04-15T21:18:23.865Z,9.01
2023-04-15T21:20:57.793Z,9.05
2023-04-15T21:23:24.503Z,9.05
2023-04-15T21:25:51.696Z,9.05
2023-04-15T21:28:18.562Z,9.05
2023-04-15T21:30:46.312Z,9.10
2023-04-15T21:33:13.073Z,9.15
2023-04-15T21:35:39.812Z,9.15
2023-04-15T21:38:06.478Z,9.08
2023-04-15T21:40:33.156Z,9.07
2023-04-15T21:42:59.960Z,9.13
2023-04-15T21:45:26.518Z,9.11
2023-04-15T21:48:05.455Z,9.17
2023-04-15T21:50:36.402Z,9.15
2023-04-15T21:53:03.413Z,9.12
2023-04-15T21:55:30.134Z,9.18
2023-04-15T21:57:56.577Z,9.16
2023-04-15T22:00:24.532Z,9.15
2023-04-15T22:02:51.887Z,9.12
2023-04-15T22:05:18.917Z,9.20
2023-04-15T22:07:45.636Z,9.16
2023-04-15T22:10:12.326Z,8.85
2023-04-15T22:12:40.641Z,9.13
2023-04-15T22:15:07.351Z,9.12
2023-04-15T22:17:34.644Z,9.17
2023-04-15T22:20:01.563Z,9.15
2023-04-15T22:22:43.404Z,9.17
2023-04-15T22:25:11.712Z,9.15
2023-04-15T22:27:38.257Z,9.12
2023-04-15T22:30:05.193Z,9.19
2023-04-15T22:32:31.892Z,9.16
2023-04-15T22:34:58.835Z,9.15
2023-04-15T22:37:26.821Z,9.17
2023-04-15T22:39:53.478Z,9.14
2023-04-15T22:42:20.138Z,9.15
2023-04-15T22:44:46.713Z,9.15
2023-04-15T22:47:13.520Z,9.13
2023-04-15T22:49:40.238Z,9.17
2023-04-15T22:52:07.970Z,9.18
2023-04-15T22:54:35.736Z,9.16
2023-04-15T22:57:02.322Z,9.17
2023-04-15T22:59:28.996Z,9.19
2023-04-15T23:01:56.016Z,9.18
2023-04-15T23:04:27.151Z,9.24
2023-04-15T23:06:54.182Z,9.19
2023-04-15T23:09:21.196Z,9.20
2023-04-15T23:11:47.608Z,9.23
2023-04-15T23:14:14.077Z,9.24
2023-04-15T23:16:40.818Z,9.19
2023-04-15T23:19:07.965Z,9.20
2023-04-15T23:21:35.004Z,9.19
2023-04-15T23:24:01.478Z,9.22
2023-04-15T23:26:27.991Z,9.23
2023-04-15T23:28:55.486Z,9.18
2023-04-15T23:31:22.204Z,9.18
2023-04-15T23:33:48.836Z,9.16
2023-04-15T23:36:15.464Z,9.16
2023-04-15T23:38:42.163Z,9.18
2023-04-15T23:41:10.087Z,9.22
2023-04-15T23:43:36.791Z,9.17
2023-04-15T23:46:03.611Z,9.24
2023-04-15T23:48:30.407Z,9.20
2023-04-15T23:50:57.127Z,9.23
2023-04-15T23:53:23.751Z,9.27
2023-04-15T23:55:50.595Z,9.16
2023-04-15T23:58:17.616Z,9.19
